sensor_id;sensor_type;location;lat;lon;timestamp;P1;durP1;ratioP1;P2;durP2;ratioP2
63189;SDS011;49286;44.460;26.114;2022-09-23T00:00:33;8.13;;;3.25;;
63189;SDS011;49286;44.460;26.114;2022-09-23T00:02:59;8.27;;;3.60;;
63189;SDS011;49286;44.460;26.114;2022-09-23T00:05:25;8.32;;;3.63;;
63189;SDS011;49286;44.460;26.114;2022-09-23T00:07:51;5.82;;;3.58;;
63189;SDS011;49286;44.460;26.114;2022-09-23T00:10:17;9.40;;;3.40;;
63189;SDS011;49286;44.460;26.114;2022-09-23T00:12:42;4.15;;;2.33;;
63189;SDS011;49286;44.460;26.114;2022-09-23T00:15:08;8.00;;;2.28;;
63189;SDS011;49286;44.460;26.114;2022-09-23T00:17:35;5.50;;;2.10;;
63189;SDS011;49286;44.460;26.114;2022-09-23T00:20:00;5.05;;;3.08;;
63189;SDS011;49286;44.460;26.114;2022-09-23T00:22:26;6.82;;;2.33;;
63189;SDS011;49286;44.460;26.114;2022-09-23T00:24:51;2.80;;;2.05;;
63189;SDS011;49286;44.460;26.114;2022-09-23T00:27:17;4.90;;;2.22;;
63189;SDS011;49286;44.460;26.114;2022-09-23T00:29:45;8.55;;;2.30;;
63189;SDS011;49286;44.460;26.114;2022-09-23T00:32:10;4.28;;;2.40;;
63189;SDS011;49286;44.460;26.114;2022-09-23T00:34:36;4.40;;;2.05;;
63189;SDS011;49286;44.460;26.114;2022-09-23T00:37:01;7.45;;;3.08;;
63189;SDS011;49286;44.460;26.114;2022-09-23T00:39:27;4.43;;;2.50;;
63189;SDS011;49286;44.460;26.114;2022-09-23T00:41:52;6.03;;;2.95;;
63189;SDS011;49286;44.460;26.114;2022-09-23T00:49:46;4.68;;;2.20;;
63189;SDS011;49286;44.460;26.114;2022-09-23T00:52:17;3.83;;;2.53;;
63189;SDS011;49286;44.460;26.114;2022-09-23T00:54:47;6.43;;;3.30;;
63189;SDS011;49286;44.460;26.114;2022-09-23T00:57:16;5.45;;;3.15;;
63189;SDS011;49286;44.460;26.114;2022-09-23T00:59:44;5.93;;;3.42;;
63189;SDS011;49286;44.460;26.114;2022-09-23T01:02:10;6.38;;;2.10;;
63189;SDS011;49286;44.460;26.114;2022-09-23T01:04:38;5.68;;;3.13;;
63189;SDS011;49286;44.460;26.114;2022-09-23T01:07:04;5.28;;;2.38;;
63189;SDS011;49286;44.460;26.114;2022-09-23T01:09:30;5.82;;;3.03;;
63189;SDS011;49286;44.460;26.114;2022-09-23T01:31:18;4.20;;;2.10;;
63189;SDS011;49286;44.460;26.114;2022-09-23T01:39:11;5.35;;;3.53;;
63189;SDS011;49286;44.460;26.114;2022-09-23T01:44:41;6.35;;;3.75;;
63189;SDS011;49286;44.460;26.114;2022-09-23T01:47:14;6.32;;;3.40;;
63189;SDS011;49286;44.460;26.114;2022-09-23T01:49:58;5.38;;;3.42;;
63189;SDS011;49286;44.460;26.114;2022-09-23T01:55:05;6.03;;;3.35;;
63189;SDS011;49286;44.460;26.114;2022-09-23T01:57:41;6.22;;;3.53;;
63189;SDS011;49286;44.460;26.114;2022-09-23T02:00:13;11.80;;;3.85;;
63189;SDS011;49286;44.460;26.114;2022-09-23T02:03:03;5.15;;;2.45;;
63189;SDS011;49286;44.460;26.114;2022-09-23T02:06:01;6.90;;;3.08;;
63189;SDS011;49286;44.460;26.114;2022-09-23T02:08:37;6.05;;;3.42;;
63189;SDS011;49286;44.460;26.114;2022-09-23T02:11:22;6.53;;;3.63;;
63189;SDS011;49286;44.460;26.114;2022-09-23T02:13:55;8.25;;;3.30;;
63189;SDS011;49286;44.460;26.114;2022-09-23T02:21:28;6.68;;;3.50;;
63189;SDS011;49286;44.460;26.114;2022-09-23T02:24:11;5.85;;;3.20;;
63189;SDS011;49286;44.460;26.114;2022-09-23T02:34:45;4.90;;;2.47;;
63189;SDS011;49286;44.460;26.114;2022-09-23T02:43:01;5.32;;;2.67;;
63189;SDS011;49286;44.460;26.114;2022-09-23T02:45:34;4.93;;;2.58;;
63189;SDS011;49286;44.460;26.114;2022-09-23T02:48:25;5.03;;;2.60;;
63189;SDS011;49286;44.460;26.114;2022-09-23T02:50:51;12.27;;;3.53;;
63189;SDS011;49286;44.460;26.114;2022-09-23T02:53:17;7.20;;;3.15;;
63189;SDS011;49286;44.460;26.114;2022-09-23T02:55:42;5.55;;;3.10;;
63189;SDS011;49286;44.460;26.114;2022-09-23T02:58:08;7.80;;;3.63;;
63189;SDS011;49286;44.460;26.114;2022-09-23T03:00:43;6.53;;;3.08;;
63189;SDS011;49286;44.460;26.114;2022-09-23T03:05:58;6.15;;;2.67;;
63189;SDS011;49286;44.460;26.114;2022-09-23T03:08:36;8.75;;;3.90;;
63189;SDS011;49286;44.460;26.114;2022-09-23T03:11:10;5.18;;;2.70;;
63189;SDS011;49286;44.460;26.114;2022-09-23T03:16:17;5.38;;;3.38;;
63189;SDS011;49286;44.460;26.114;2022-09-23T03:18:45;7.38;;;3.70;;
63189;SDS011;49286;44.460;26.114;2022-09-23T03:23:56;5.72;;;3.00;;
63189;SDS011;49286;44.460;26.114;2022-09-23T03:26:32;8.10;;;3.67;;
63189;SDS011;49286;44.460;26.114;2022-09-23T03:29:03;5.00;;;2.50;;
63189;SDS011;49286;44.460;26.114;2022-09-23T03:31:31;3.80;;;2.60;;
63189;SDS011;49286;44.460;26.114;2022-09-23T03:33:58;5.63;;;3.00;;
63189;SDS011;49286;44.460;26.114;2022-09-23T03:36:32;7.38;;;3.58;;
63189;SDS011;49286;44.460;26.114;2022-09-23T03:42:06;4.68;;;2.95;;
63189;SDS011;49286;44.460;26.114;2022-09-23T03:44:37;6.10;;;3.08;;
63189;SDS011;49286;44.460;26.114;2022-09-23T03:47:08;7.07;;;4.50;;
63189;SDS011;49286;44.460;26.114;2022-09-23T03:49:36;6.35;;;3.15;;
63189;SDS011;49286;44.460;26.114;2022-09-23T03:52:04;7.40;;;4.15;;
63189;SDS011;49286;44.460;26.114;2022-09-23T03:54:29;7.75;;;3.50;;
63189;SDS011;49286;44.460;26.114;2022-09-23T03:56:56;7.28;;;3.83;;
63189;SDS011;49286;44.460;26.114;2022-09-23T03:59:25;6.32;;;4.38;;
63189;SDS011;49286;44.460;26.114;2022-09-23T04:01:52;5.07;;;2.75;;
63189;SDS011;49286;44.460;26.114;2022-09-23T04:04:18;9.95;;;3.80;;
63189;SDS011;49286;44.460;26.114;2022-09-23T04:06:44;5.75;;;3.67;;
63189;SDS011;49286;44.460;26.114;2022-09-23T04:09:10;7.22;;;4.07;;
63189;SDS011;49286;44.460;26.114;2022-09-23T04:11:35;9.45;;;4.07;;
63189;SDS011;49286;44.460;26.114;2022-09-23T04:14:01;14.50;;;5.32;;
63189;SDS011;49286;44.460;26.114;2022-09-23T04:16:27;10.05;;;4.30;;
63189;SDS011;49286;44.460;26.114;2022-09-23T04:18:53;11.35;;;3.83;;
63189;SDS011;49286;44.460;26.114;2022-09-23T04:21:18;7.32;;;4.30;;
63189;SDS011;49286;44.460;26.114;2022-09-23T04:23:44;6.90;;;4.78;;
63189;SDS011;49286;44.460;26.114;2022-09-23T04:26:10;10.25;;;4.47;;
63189;SDS011;49286;44.460;26.114;2022-09-23T04:28:37;15.88;;;4.57;;
63189;SDS011;49286;44.460;26.114;2022-09-23T04:31:03;5.20;;;3.95;;
63189;SDS011;49286;44.460;26.114;2022-09-23T04:33:29;7.13;;;4.30;;
63189;SDS011;49286;44.460;26.114;2022-09-23T04:35:55;7.53;;;4.45;;
63189;SDS011;49286;44.460;26.114;2022-09-23T04:38:21;7.78;;;4.13;;
63189;SDS011;49286;44.460;26.114;2022-09-23T04:40:47;8.13;;;4.78;;
63189;SDS011;49286;44.460;26.114;2022-09-23T04:43:13;6.57;;;4.07;;
63189;SDS011;49286;44.460;26.114;2022-09-23T04:45:40;8.27;;;4.00;;
63189;SDS011;49286;44.460;26.114;2022-09-23T04:48:06;9.23;;;5.32;;
63189;SDS011;49286;44.460;26.114;2022-09-23T04:50:33;7.60;;;4.20;;
63189;SDS011;49286;44.460;26.114;2022-09-23T04:52:59;8.18;;;4.13;;
63189;SDS011;49286;44.460;26.114;2022-09-23T04:55:26;8.23;;;4.93;;
63189;SDS011;49286;44.460;26.114;2022-09-23T04:57:52;10.38;;;4.18;;
63189;SDS011;49286;44.460;26.114;2022-09-23T05:00:17;10.15;;;4.78;;
63189;SDS011;49286;44.460;26.114;2022-09-23T05:02:44;17.23;;;6.82;;
63189;SDS011;49286;44.460;26.114;2022-09-23T05:05:11;6.95;;;3.95;;
63189;SDS011;49286;44.460;26.114;2022-09-23T05:07:36;13.57;;;4.32;;
63189;SDS011;49286;44.460;26.114;2022-09-23T05:10:02;16.30;;;6.55;;
63189;SDS011;49286;44.460;26.114;2022-09-23T05:12:28;13.50;;;5.20;;
63189;SDS011;49286;44.460;26.114;2022-09-23T05:14:54;11.43;;;5.35;;
63189;SDS011;49286;44.460;26.114;2022-09-23T05:17:20;8.50;;;5.88;;
63189;SDS011;49286;44.460;26.114;2022-09-23T05:19:45;7.63;;;4.22;;
63189;SDS011;49286;44.460;26.114;2022-09-23T05:22:11;10.05;;;4.80;;
63189;SDS011;49286;44.460;26.114;2022-09-23T05:24:36;13.55;;;5.90;;
63189;SDS011;49286;44.460;26.114;2022-09-23T05:27:02;10.13;;;6.03;;
63189;SDS011;49286;44.460;26.114;2022-09-23T05:29:30;13.20;;;6.80;;
63189;SDS011;49286;44.460;26.114;2022-09-23T05:31:55;8.40;;;5.68;;
63189;SDS011;49286;44.460;26.114;2022-09-23T05:34:21;13.88;;;5.95;;
63189;SDS011;49286;44.460;26.114;2022-09-23T05:36:53;17.45;;;7.35;;
63189;SDS011;49286;44.460;26.114;2022-09-23T05:39:19;12.18;;;6.60;;
63189;SDS011;49286;44.460;26.114;2022-09-23T05:41:44;13.57;;;6.40;;
63189;SDS011;49286;44.460;26.114;2022-09-23T05:44:10;12.27;;;7.00;;
63189;SDS011;49286;44.460;26.114;2022-09-23T05:46:35;8.15;;;6.07;;
63189;SDS011;49286;44.460;26.114;2022-09-23T05:49:01;11.07;;;6.45;;
63189;SDS011;49286;44.460;26.114;2022-09-23T05:51:28;7.68;;;4.95;;
63189;SDS011;49286;44.460;26.114;2022-09-23T05:53:54;9.98;;;5.68;;
63189;SDS011;49286;44.460;26.114;2022-09-23T05:56:22;9.05;;;5.63;;
63189;SDS011;49286;44.460;26.114;2022-09-23T05:58:50;8.48;;;5.55;;
63189;SDS011;49286;44.460;26.114;2022-09-23T06:01:17;7.97;;;5.05;;
63189;SDS011;49286;44.460;26.114;2022-09-23T06:03:59;6.53;;;4.90;;
63189;SDS011;49286;44.460;26.114;2022-09-23T06:06:36;8.15;;;5.53;;
63189;SDS011;49286;44.460;26.114;2022-09-23T06:09:04;11.10;;;3.22;;
63189;SDS011;49286;44.460;26.114;2022-09-23T06:11:30;5.63;;;3.63;;
63189;SDS011;49286;44.460;26.114;2022-09-23T06:13:58;8.00;;;3.72;;
63189;SDS011;49286;44.460;26.114;2022-09-23T06:16:28;8.05;;;4.47;;
63189;SDS011;49286;44.460;26.114;2022-09-23T06:18:56;7.32;;;3.70;;
63189;SDS011;49286;44.460;26.114;2022-09-23T06:21:24;11.18;;;4.22;;
63189;SDS011;49286;44.460;26.114;2022-09-23T06:23:50;15.88;;;5.43;;
63189;SDS011;49286;44.460;26.114;2022-09-23T06:26:15;9.90;;;5.80;;
63189;SDS011;49286;44.460;26.114;2022-09-23T06:28:41;10.35;;;4.25;;
63189;SDS011;49286;44.460;26.114;2022-09-23T06:31:11;8.80;;;5.53;;
63189;SDS011;49286;44.460;26.114;2022-09-23T06:33:39;10.32;;;3.47;;
63189;SDS011;49286;44.460;26.114;2022-09-23T06:36:06;10.82;;;5.28;;
63189;SDS011;49286;44.460;26.114;2022-09-23T06:38:32;7.45;;;3.78;;
63189;SDS011;49286;44.460;26.114;2022-09-23T06:40:58;8.23;;;4.25;;
63189;SDS011;49286;44.460;26.114;2022-09-23T06:43:24;8.27;;;5.53;;
63189;SDS011;49286;44.460;26.114;2022-09-23T06:45:53;6.20;;;5.10;;
63189;SDS011;49286;44.460;26.114;2022-09-23T06:48:20;9.82;;;4.82;;
63189;SDS011;49286;44.460;26.114;2022-09-23T06:50:46;12.18;;;5.50;;
63189;SDS011;49286;44.460;26.114;2022-09-23T06:53:15;6.35;;;4.20;;
63189;SDS011;49286;44.460;26.114;2022-09-23T06:55:41;8.23;;;4.15;;
63189;SDS011;49286;44.460;26.114;2022-09-23T06:58:07;11.00;;;4.45;;
63189;SDS011;49286;44.460;26.114;2022-09-23T07:00:33;7.35;;;3.78;;
63189;SDS011;49286;44.460;26.114;2022-09-23T07:03:00;6.25;;;3.92;;
63189;SDS011;49286;44.460;26.114;2022-09-23T07:05:25;5.50;;;3.17;;
63189;SDS011;49286;44.460;26.114;2022-09-23T07:07:51;5.32;;;3.53;;
63189;SDS011;49286;44.460;26.114;2022-09-23T07:10:17;5.95;;;4.45;;
63189;SDS011;49286;44.460;26.114;2022-09-23T07:12:43;7.85;;;4.65;;
63189;SDS011;49286;44.460;26.114;2022-09-23T07:15:08;11.13;;;4.35;;
63189;SDS011;49286;44.460;26.114;2022-09-23T07:17:34;7.97;;;3.72;;
63189;SDS011;49286;44.460;26.114;2022-09-23T07:20:02;10.15;;;4.65;;
63189;SDS011;49286;44.460;26.114;2022-09-23T07:22:28;6.32;;;3.60;;
63189;SDS011;49286;44.460;26.114;2022-09-23T07:24:53;8.48;;;5.20;;
63189;SDS011;49286;44.460;26.114;2022-09-23T07:27:22;6.10;;;3.85;;
63189;SDS011;49286;44.460;26.114;2022-09-23T07:29:49;5.82;;;3.92;;
63189;SDS011;49286;44.460;26.114;2022-09-23T07:32:16;7.60;;;4.88;;
63189;SDS011;49286;44.460;26.114;2022-09-23T07:34:41;7.60;;;4.13;;
63189;SDS011;49286;44.460;26.114;2022-09-23T07:37:08;21.27;;;5.05;;
63189;SDS011;49286;44.460;26.114;2022-09-23T07:39:41;8.57;;;4.47;;
63189;SDS011;49286;44.460;26.114;2022-09-23T07:42:07;7.13;;;4.93;;
63189;SDS011;49286;44.460;26.114;2022-09-23T07:44:38;14.35;;;4.72;;
63189;SDS011;49286;44.460;26.114;2022-09-23T07:47:04;7.82;;;4.47;;
63189;SDS011;49286;44.460;26.114;2022-09-23T07:49:30;8.20;;;3.42;;
63189;SDS011;49286;44.460;26.114;2022-09-23T07:51:55;13.52;;;4.78;;
63189;SDS011;49286;44.460;26.114;2022-09-23T07:54:21;6.80;;;3.78;;
63189;SDS011;49286;44.460;26.114;2022-09-23T07:56:49;7.90;;;5.15;;
63189;SDS011;49286;44.460;26.114;2022-09-23T07:59:15;12.00;;;4.93;;
63189;SDS011;49286;44.460;26.114;2022-09-23T08:01:43;7.35;;;4.43;;
63189;SDS011;49286;44.460;26.114;2022-09-23T08:06:50;9.15;;;4.70;;
63189;SDS011;49286;44.460;26.114;2022-09-23T08:09:18;6.57;;;3.60;;
63189;SDS011;49286;44.460;26.114;2022-09-23T08:11:45;10.65;;;4.35;;
63189;SDS011;49286;44.460;26.114;2022-09-23T08:14:12;6.53;;;3.05;;
63189;SDS011;49286;44.460;26.114;2022-09-23T08:16:39;7.20;;;2.90;;
63189;SDS011;49286;44.460;26.114;2022-09-23T08:19:05;6.45;;;3.50;;
63189;SDS011;49286;44.460;26.114;2022-09-23T08:21:31;5.38;;;2.47;;
63189;SDS011;49286;44.460;26.114;2022-09-23T08:23:57;9.32;;;4.13;;
63189;SDS011;49286;44.460;26.114;2022-09-23T08:26:22;6.28;;;3.72;;
63189;SDS011;49286;44.460;26.114;2022-09-23T08:28:51;7.45;;;3.10;;
63189;SDS011;49286;44.460;26.114;2022-09-23T08:31:19;4.05;;;2.33;;
63189;SDS011;49286;44.460;26.114;2022-09-23T08:33:45;8.05;;;3.38;;
63189;SDS011;49286;44.460;26.114;2022-09-23T08:36:11;4.25;;;2.50;;
63189;SDS011;49286;44.460;26.114;2022-09-23T08:38:36;5.13;;;2.80;;
63189;SDS011;49286;44.460;26.114;2022-09-23T08:43:55;5.25;;;2.55;;
63189;SDS011;49286;44.460;26.114;2022-09-23T08:46:27;4.88;;;2.97;;
63189;SDS011;49286;44.460;26.114;2022-09-23T08:49:04;6.80;;;3.33;;
63189;SDS011;49286;44.460;26.114;2022-09-23T08:51:43;7.57;;;3.10;;
63189;SDS011;49286;44.460;26.114;2022-09-23T08:54:10;3.75;;;2.30;;
63189;SDS011;49286;44.460;26.114;2022-09-23T08:56:37;8.55;;;3.78;;
63189;SDS011;49286;44.460;26.114;2022-09-23T08:59:48;8.32;;;4.40;;
63189;SDS011;49286;44.460;26.114;2022-09-23T09:02:06;11.18;;;3.80;;
63189;SDS011;49286;44.460;26.114;2022-09-23T09:04:49;8.35;;;2.75;;
63189;SDS011;49286;44.460;26.114;2022-09-23T09:07:22;6.47;;;2.55;;
63189;SDS011;49286;44.460;26.114;2022-09-23T09:09:57;7.40;;;3.22;;
63189;SDS011;49286;44.460;26.114;2022-09-23T09:12:29;6.22;;;3.47;;
63189;SDS011;49286;44.460;26.114;2022-09-23T09:17:38;12.52;;;3.47;;
63189;SDS011;49286;44.460;26.114;2022-09-23T09:25:51;6.20;;;3.30;;
63189;SDS011;49286;44.460;26.114;2022-09-23T09:33:59;7.25;;;3.40;;
63189;SDS011;49286;44.460;26.114;2022-09-23T09:39:10;9.25;;;3.40;;
63189;SDS011;49286;44.460;26.114;2022-09-23T09:41:38;7.93;;;3.15;;
63189;SDS011;49286;44.460;26.114;2022-09-23T09:44:16;6.93;;;3.20;;
63189;SDS011;49286;44.460;26.114;2022-09-23T09:47:04;5.88;;;2.53;;
63189;SDS011;49286;44.460;26.114;2022-09-23T09:49:41;16.63;;;4.35;;
63189;SDS011;49286;44.460;26.114;2022-09-23T09:52:18;7.03;;;3.20;;
63189;SDS011;49286;44.460;26.114;2022-09-23T09:54:44;6.47;;;3.67;;
63189;SDS011;49286;44.460;26.114;2022-09-23T09:57:29;7.93;;;3.22;;
63189;SDS011;49286;44.460;26.114;2022-09-23T10:00:15;6.53;;;2.85;;
63189;SDS011;49286;44.460;26.114;2022-09-23T10:02:43;10.48;;;6.38;;
63189;SDS011;49286;44.460;26.114;2022-09-23T10:05:52;7.97;;;3.22;;
63189;SDS011;49286;44.460;26.114;2022-09-23T10:11:00;6.65;;;2.55;;
63189;SDS011;49286;44.460;26.114;2022-09-23T10:13:27;9.80;;;3.15;;
63189;SDS011;49286;44.460;26.114;2022-09-23T10:15:54;13.40;;;2.63;;
63189;SDS011;49286;44.460;26.114;2022-09-23T10:21:12;4.93;;;2.55;;
63189;SDS011;49286;44.460;26.114;2022-09-23T10:23:43;7.03;;;3.20;;
63189;SDS011;49286;44.460;26.114;2022-09-23T10:26:11;4.53;;;2.35;;
63189;SDS011;49286;44.460;26.114;2022-09-23T10:33:56;5.25;;;2.75;;
63189;SDS011;49286;44.460;26.114;2022-09-23T10:36:26;6.55;;;3.58;;
63189;SDS011;49286;44.460;26.114;2022-09-23T10:39:03;5.13;;;2.78;;
63189;SDS011;49286;44.460;26.114;2022-09-23T10:55:39;5.75;;;3.10;;
63189;SDS011;49286;44.460;26.114;2022-09-23T11:01:16;6.03;;;3.25;;
63189;SDS011;49286;44.460;26.114;2022-09-23T11:09:31;5.40;;;3.20;;
63189;SDS011;49286;44.460;26.114;2022-09-23T11:17:36;5.85;;;2.53;;
63189;SDS011;49286;44.460;26.114;2022-09-23T11:31:25;5.43;;;3.10;;
63189;SDS011;49286;44.460;26.114;2022-09-23T11:36:53;5.80;;;2.38;;
63189;SDS011;49286;44.460;26.114;2022-09-23T11:39:31;6.20;;;2.38;;
63189;SDS011;49286;44.460;26.114;2022-09-23T11:42:04;3.97;;;2.28;;
63189;SDS011;49286;44.460;26.114;2022-09-23T11:44:43;4.05;;;2.05;;
63189;SDS011;49286;44.460;26.114;2022-09-23T11:47:23;6.05;;;2.67;;
63189;SDS011;49286;44.460;26.114;2022-09-23T11:50:16;5.68;;;2.28;;
63189;SDS011;49286;44.460;26.114;2022-09-23T11:52:50;3.53;;;1.88;;
63189;SDS011;49286;44.460;26.114;2022-09-23T11:55:26;3.63;;;1.75;;
63189;SDS011;49286;44.460;26.114;2022-09-23T12:00:36;3.90;;;2.20;;
63189;SDS011;49286;44.460;26.114;2022-09-23T12:06:02;3.58;;;2.10;;
63189;SDS011;49286;44.460;26.114;2022-09-23T12:08:33;3.75;;;2.15;;
63189;SDS011;49286;44.460;26.114;2022-09-23T12:16:34;4.70;;;2.00;;
63189;SDS011;49286;44.460;26.114;2022-09-23T12:20:03;2.60;;;1.80;;
63189;SDS011;49286;44.460;26.114;2022-09-23T12:27:52;3.40;;;2.10;;
63189;SDS011;49286;44.460;26.114;2022-09-23T12:30:26;2.95;;;1.85;;
63189;SDS011;49286;44.460;26.114;2022-09-23T12:35:49;5.65;;;2.80;;
63189;SDS011;49286;44.460;26.114;2022-09-23T12:43:51;8.70;;;3.53;;
63189;SDS011;49286;44.460;26.114;2022-09-23T12:46:21;5.70;;;3.15;;
63189;SDS011;49286;44.460;26.114;2022-09-23T12:51:23;5.43;;;2.33;;
63189;SDS011;49286;44.460;26.114;2022-09-23T12:53:58;4.95;;;1.63;;
63189;SDS011;49286;44.460;26.114;2022-09-23T13:01:52;2.45;;;1.45;;
63189;SDS011;49286;44.460;26.114;2022-09-23T13:04:42;2.97;;;1.80;;
63189;SDS011;49286;44.460;26.114;2022-09-23T13:07:32;6.90;;;1.90;;
63189;SDS011;49286;44.460;26.114;2022-09-23T13:10:09;3.20;;;1.17;;
63189;SDS011;49286;44.460;26.114;2022-09-23T13:13:02;2.47;;;1.20;;
63189;SDS011;49286;44.460;26.114;2022-09-23T13:15:33;3.28;;;1.50;;
63189;SDS011;49286;44.460;26.114;2022-09-23T13:21:25;1.63;;;1.10;;
63189;SDS011;49286;44.460;26.114;2022-09-23T13:29:38;8.63;;;2.72;;
63189;SDS011;49286;44.460;26.114;2022-09-23T13:32:12;5.30;;;2.20;;
63189;SDS011;49286;44.460;26.114;2022-09-23T13:34:41;5.20;;;2.80;;
63189;SDS011;49286;44.460;26.114;2022-09-23T13:37:18;5.82;;;1.77;;
63189;SDS011;49286;44.460;26.114;2022-09-23T13:39:45;2.03;;;0.85;;
63189;SDS011;49286;44.460;26.114;2022-09-23T13:42:45;3.72;;;1.77;;
63189;SDS011;49286;44.460;26.114;2022-09-23T13:45:04;3.90;;;1.70;;
63189;SDS011;49286;44.460;26.114;2022-09-23T13:47:42;3.10;;;1.05;;
63189;SDS011;49286;44.460;26.114;2022-09-23T13:50:15;2.65;;;1.50;;
63189;SDS011;49286;44.460;26.114;2022-09-23T13:52:56;2.70;;;1.67;;
63189;SDS011;49286;44.460;26.114;2022-09-23T13:55:31;12.90;;;1.95;;
63189;SDS011;49286;44.460;26.114;2022-09-23T13:58:04;3.35;;;1.52;;
63189;SDS011;49286;44.460;26.114;2022-09-23T14:00:37;1.90;;;0.82;;
63189;SDS011;49286;44.460;26.114;2022-09-23T14:05:47;2.88;;;1.30;;
63189;SDS011;49286;44.460;26.114;2022-09-23T14:08:13;2.08;;;1.15;;
63189;SDS011;49286;44.460;26.114;2022-09-23T14:10:39;4.10;;;1.20;;
63189;SDS011;49286;44.460;26.114;2022-09-23T14:13:11;6.50;;;1.73;;
63189;SDS011;49286;44.460;26.114;2022-09-23T14:15:49;6.78;;;1.95;;
63189;SDS011;49286;44.460;26.114;2022-09-23T14:18:32;2.67;;;1.20;;
63189;SDS011;49286;44.460;26.114;2022-09-23T14:21:00;4.28;;;1.25;;
63189;SDS011;49286;44.460;26.114;2022-09-23T14:23:26;8.63;;;2.42;;
63189;SDS011;49286;44.460;26.114;2022-09-23T14:25:51;5.57;;;1.38;;
63189;SDS011;49286;44.460;26.114;2022-09-23T14:28:20;8.68;;;1.83;;
63189;SDS011;49286;44.460;26.114;2022-09-23T14:30:48;5.97;;;1.63;;
63189;SDS011;49286;44.460;26.114;2022-09-23T14:33:21;11.18;;;3.30;;
63189;SDS011;49286;44.460;26.114;2022-09-23T14:35:51;13.33;;;3.60;;
63189;SDS011;49286;44.460;26.114;2022-09-23T14:38:22;7.63;;;2.58;;
63189;SDS011;49286;44.460;26.114;2022-09-23T14:41:13;4.40;;;1.98;;
63189;SDS011;49286;44.460;26.114;2022-09-23T14:43:53;6.28;;;2.50;;
63189;SDS011;49286;44.460;26.114;2022-09-23T14:46:24;10.60;;;2.30;;
63189;SDS011;49286;44.460;26.114;2022-09-23T14:48:52;4.53;;;1.88;;
63189;SDS011;49286;44.460;26.114;2022-09-23T14:51:57;3.47;;;1.70;;
63189;SDS011;49286;44.460;26.114;2022-09-23T14:56:50;5.03;;;1.38;;
63189;SDS011;49286;44.460;26.114;2022-09-23T14:59:36;3.10;;;1.73;;
63189;SDS011;49286;44.460;26.114;2022-09-23T15:02:23;3.30;;;1.48;;
63189;SDS011;49286;44.460;26.114;2022-09-23T15:05:17;2.90;;;1.25;;
63189;SDS011;49286;44.460;26.114;2022-09-23T15:07:48;3.58;;;1.40;;
63189;SDS011;49286;44.460;26.114;2022-09-23T15:10:20;2.53;;;1.10;;
63189;SDS011;49286;44.460;26.114;2022-09-23T15:12:51;3.00;;;1.55;;
63189;SDS011;49286;44.460;26.114;2022-09-23T15:15:19;2.58;;;1.05;;
63189;SDS011;49286;44.460;26.114;2022-09-23T15:17:49;3.63;;;1.38;;
63189;SDS011;49286;44.460;26.114;2022-09-23T15:22:48;2.97;;;1.10;;
63189;SDS011;49286;44.460;26.114;2022-09-23T15:28:25;2.42;;;1.20;;
63189;SDS011;49286;44.460;26.114;2022-09-23T15:30:35;3.05;;;1.58;;
63189;SDS011;49286;44.460;26.114;2022-09-23T15:33:01;4.00;;;2.30;;
63189;SDS011;49286;44.460;26.114;2022-09-23T15:35:28;4.03;;;1.80;;
63189;SDS011;49286;44.460;26.114;2022-09-23T15:37:56;2.88;;;1.38;;
63189;SDS011;49286;44.460;26.114;2022-09-23T15:40:32;2.70;;;1.13;;
63189;SDS011;49286;44.460;26.114;2022-09-23T15:42:59;4.25;;;0.95;;
63189;SDS011;49286;44.460;26.114;2022-09-23T15:45:42;4.97;;;1.98;;
63189;SDS011;49286;44.460;26.114;2022-09-23T15:48:13;3.65;;;1.33;;
63189;SDS011;49286;44.460;26.114;2022-09-23T15:50:41;3.65;;;1.25;;
63189;SDS011;49286;44.460;26.114;2022-09-23T15:53:08;2.28;;;1.23;;
63189;SDS011;49286;44.460;26.114;2022-09-23T15:55:40;7.03;;;2.58;;
63189;SDS011;49286;44.460;26.114;2022-09-23T15:58:05;4.25;;;2.55;;
63189;SDS011;49286;44.460;26.114;2022-09-23T16:00:31;5.97;;;2.40;;
63189;SDS011;49286;44.460;26.114;2022-09-23T16:02:59;9.02;;;2.85;;
63189;SDS011;49286;44.460;26.114;2022-09-23T16:05:26;6.50;;;3.53;;
63189;SDS011;49286;44.460;26.114;2022-09-23T16:07:57;5.90;;;3.83;;
63189;SDS011;49286;44.460;26.114;2022-09-23T16:10:24;6.60;;;3.75;;
63189;SDS011;49286;44.460;26.114;2022-09-23T16:12:50;5.68;;;3.80;;
63189;SDS011;49286;44.460;26.114;2022-09-23T16:15:19;7.78;;;3.72;;
63189;SDS011;49286;44.460;26.114;2022-09-23T16:17:46;8.07;;;4.72;;
63189;SDS011;49286;44.460;26.114;2022-09-23T16:20:12;8.88;;;4.47;;
63189;SDS011;49286;44.460;26.114;2022-09-23T16:22:45;7.35;;;4.88;;
63189;SDS011;49286;44.460;26.114;2022-09-23T16:25:22;5.85;;;3.55;;
63189;SDS011;49286;44.460;26.114;2022-09-23T16:27:52;8.23;;;4.72;;
63189;SDS011;49286;44.460;26.114;2022-09-23T16:30:21;8.02;;;4.45;;
63189;SDS011;49286;44.460;26.114;2022-09-23T16:32:47;14.60;;;5.05;;
63189;SDS011;49286;44.460;26.114;2022-09-23T16:35:15;11.18;;;4.43;;
63189;SDS011;49286;44.460;26.114;2022-09-23T16:37:42;11.77;;;4.40;;
63189;SDS011;49286;44.460;26.114;2022-09-23T16:40:11;6.28;;;3.33;;
63189;SDS011;49286;44.460;26.114;2022-09-23T16:42:40;9.15;;;3.35;;
63189;SDS011;49286;44.460;26.114;2022-09-23T16:45:06;6.03;;;2.63;;
63189;SDS011;49286;44.460;26.114;2022-09-23T16:47:33;7.60;;;2.72;;
63189;SDS011;49286;44.460;26.114;2022-09-23T16:49:58;6.32;;;3.05;;
63189;SDS011;49286;44.460;26.114;2022-09-23T16:52:24;6.30;;;3.92;;
63189;SDS011;49286;44.460;26.114;2022-09-23T16:54:49;8.95;;;5.15;;
63189;SDS011;49286;44.460;26.114;2022-09-23T16:57:15;6.43;;;3.80;;
63189;SDS011;49286;44.460;26.114;2022-09-23T16:59:40;6.93;;;4.22;;
63189;SDS011;49286;44.460;26.114;2022-09-23T17:02:24;15.85;;;4.78;;
63189;SDS011;49286;44.460;26.114;2022-09-23T17:05:09;8.77;;;5.28;;
63189;SDS011;49286;44.460;26.114;2022-09-23T17:07:36;15.23;;;5.60;;
63189;SDS011;49286;44.460;26.114;2022-09-23T17:10:01;18.13;;;5.28;;
63189;SDS011;49286;44.460;26.114;2022-09-23T17:12:28;10.07;;;5.05;;
63189;SDS011;49286;44.460;26.114;2022-09-23T17:14:59;14.77;;;6.93;;
63189;SDS011;49286;44.460;26.114;2022-09-23T17:17:25;20.85;;;6.28;;
63189;SDS011;49286;44.460;26.114;2022-09-23T17:19:53;11.32;;;6.43;;
63189;SDS011;49286;44.460;26.114;2022-09-23T17:22:19;8.68;;;6.07;;
63189;SDS011;49286;44.460;26.114;2022-09-23T17:24:44;14.98;;;5.72;;
63189;SDS011;49286;44.460;26.114;2022-09-23T17:27:09;9.82;;;5.82;;
63189;SDS011;49286;44.460;26.114;2022-09-23T17:29:35;13.45;;;6.20;;
63189;SDS011;49286;44.460;26.114;2022-09-23T17:32:01;11.30;;;5.75;;
63189;SDS011;49286;44.460;26.114;2022-09-23T17:34:28;9.32;;;6.35;;
63189;SDS011;49286;44.460;26.114;2022-09-23T17:36:53;20.27;;;7.68;;
63189;SDS011;49286;44.460;26.114;2022-09-23T17:39:19;17.75;;;7.38;;
63189;SDS011;49286;44.460;26.114;2022-09-23T17:41:45;15.35;;;6.97;;
63189;SDS011;49286;44.460;26.114;2022-09-23T17:44:10;16.45;;;7.45;;
63189;SDS011;49286;44.460;26.114;2022-09-23T17:46:36;12.13;;;7.90;;
63189;SDS011;49286;44.460;26.114;2022-09-23T17:49:01;15.75;;;8.20;;
63189;SDS011;49286;44.460;26.114;2022-09-23T17:51:27;24.40;;;8.63;;
63189;SDS011;49286;44.460;26.114;2022-09-23T17:53:53;11.63;;;7.43;;
63189;SDS011;49286;44.460;26.114;2022-09-23T17:56:20;17.38;;;7.68;;
63189;SDS011;49286;44.460;26.114;2022-09-23T17:58:48;15.70;;;9.05;;
63189;SDS011;49286;44.460;26.114;2022-09-23T18:01:17;15.60;;;8.25;;